Time;durP1;ratioP1;P1;durP2;ratioP2;P2;SDS_P1;SDS_P2;PMS_P1;PMS_P2;Temp;Humidity;BMP_temperature;BMP_pressure;BME280_temperature;BME280_humidity;BME280_pressure;Samples;Min_cycle;Max_cycle;Signal;HPM_P1;HPM_P2
2022/08/03 00:02:58;;;;;;;1.50;0.70;;;29.60;31.30;;;;;;6279879;28;20448;-73
2022/08/03 00:05:58;;;;;;;1.25;1.00;;;29.50;31.40;;;;;;6296022;28;20040;-73
2022/08/03 00:09:00;;;;;;;5.45;1.00;;;29.50;31.50;;;;;;6295994;28;20041;-73
2022/08/03 00:12:00;;;;;;;1.05;0.90;;;29.40;31.60;;;;;;6296010;28;20433;-72
2022/08/03 00:15:02;;;;;;;3.50;1.10;;;29.40;31.70;;;;;;6295743;28;20032;-71
2022/08/03 00:18:03;;;;;;;8.13;1.10;;;29.40;31.80;;;;;;6278291;28;22106;-73
2022/08/03 00:21:04;;;;;;;1.45;1.02;;;29.30;31.80;;;;;;6295001;28;20122;-72
2022/08/03 00:24:05;;;;;;;3.17;0.98;;;29.30;31.90;;;;;;6294991;28;20063;-72
2022/08/03 00:27:06;;;;;;;4.28;1.00;;;29.30;31.90;;;;;;6277789;28;20518;-72
2022/08/03 00:30:08;;;;;;;6.93;1.10;;;29.30;32.00;;;;;;6294528;28;20475;-72
2022/08/03 00:33:09;;;;;;;3.35;0.95;;;29.30;32.00;;;;;;6295090;28;20104;-71
2022/08/03 00:36:10;;;;;;;1.40;0.85;;;29.30;32.10;;;;;;6277867;28;20040;-72
2022/08/03 00:39:11;;;;;;;7.40;1.00;;;29.30;32.10;;;;;;6295426;28;20048;-72
2022/08/03 00:42:12;;;;;;;1.90;1.10;;;29.30;32.20;;;;;;6296650;28;20044;-72
2022/08/03 00:45:13;;;;;;;1.92;1.10;;;29.20;32.10;;;;;;6299652;28;20116;-72
2022/08/03 00:48:15;;;;;;;1.27;0.98;;;29.20;32.10;;;;;;6277214;28;20037;-71
2022/08/03 00:51:17;;;;;;;4.00;1.10;;;29.20;32.20;;;;;;6275122;28;20083;-71
2022/08/03 00:54:18;;;;;;;0.70;0.70;;;29.20;32.30;;;;;;6275346;28;20059;-71
2022/08/03 00:57:21;;;;;;;2.97;1.15;;;29.10;32.40;;;;;;6274721;28;20359;-72
2022/08/03 01:00:24;;;;;;;0.77;0.63;;;29.10;32.40;;;;;;6289552;28;20040;-71
2022/08/03 01:03:25;;;;;;;3.22;0.95;;;29.10;32.40;;;;;;6285518;28;20032;-71
2022/08/03 01:06:51;;;;;;;1.38;0.90;;;29.10;32.50;;;;;;6299691;28;20052;-71
2022/08/03 01:10:09;;;;;;;1.77;0.90;;;29.10;32.70;;;;;;6298542;28;20093;-71
2022/08/03 01:13:48;;;;;;;2.43;1.00;;;29.00;32.70;;;;;;6301355;28;20032;-71
2022/08/03 01:17:00;;;;;;;1.40;0.90;;;29.00;32.80;;;;;;6266339;28;20347;-72
2022/08/03 01:20:10;;;;;;;1.05;0.95;;;29.00;32.80;;;;;;6276209;28;20112;-74
2022/08/03 01:23:36;;;;;;;1.77;0.95;;;29.00;32.80;;;;;;6299200;28;20421;-71
2022/08/03 01:27:03;;;;;;;3.78;1.10;;;29.00;32.90;;;;;;6288148;28;20106;-72
2022/08/03 01:30:11;;;;;;;2.80;0.95;;;29.00;33.00;;;;;;6299969;28;20040;-72
2022/08/03 01:33:17;;;;;;;1.05;0.80;;;28.90;33.10;;;;;;6282332;28;20074;-71
2022/08/03 01:36:23;;;;;;;2.33;1.20;;;28.90;33.30;;;;;;6299878;28;20040;-72
2022/08/03 01:39:25;;;;;;;10.43;1.30;;;28.90;34.00;;;;;;6299870;28;20036;-72
2022/08/03 01:42:28;;;;;;;10.07;1.08;;;28.80;33.40;;;;;;6300197;28;20370;-72
2022/08/03 01:45:30;;;;;;;1.60;1.10;;;28.80;33.50;;;;;;6282254;28;20044;-71
2022/08/03 01:48:32;;;;;;;1.17;0.82;;;28.80;33.60;;;;;;6298763;28;20036;-71
2022/08/03 01:51:34;;;;;;;1.58;0.95;;;28.80;33.70;;;;;;6300160;28;20025;-72
2022/08/03 01:54:42;;;;;;;1.33;1.15;;;28.80;33.60;;;;;;6295599;28;20041;-72
2022/08/03 01:57:44;;;;;;;3.53;1.17;;;28.80;33.60;;;;;;6299191;28;20485;-72
2022/08/03 02:00:47;;;;;;;3.03;1.00;;;28.80;33.80;;;;;;6281958;28;20119;-72
2022/08/03 02:03:50;;;;;;;2.75;0.90;;;28.80;33.90;;;;;;6298451;28;20024;-72
2022/08/03 02:06:52;;;;;;;1.23;1.10;;;28.70;34.00;;;;;;6299845;28;20115;-72
2022/08/03 02:09:54;;;;;;;1.52;1.15;;;28.70;34.10;;;;;;6298101;28;20028;-72
2022/08/03 02:13:00;;;;;;;2.05;0.90;;;28.60;34.10;;;;;;6299147;28;20465;-72
2022/08/03 02:16:03;;;;;;;2.35;0.90;;;28.60;34.20;;;;;;6299558;28;20482;-72
2022/08/03 02:19:06;;;;;;;1.10;0.90;;;28.60;34.40;;;;;;6299292;28;20480;-72
2022/08/03 02:22:10;;;;;;;2.72;1.00;;;28.50;34.50;;;;;;6299162;28;20457;-72
2022/08/03 02:25:13;;;;;;;2.03;1.20;;;28.50;34.80;;;;;;6314824;28;20039;-72
2022/08/03 02:28:20;;;;;;;5.50;1.17;;;28.50;35.30;;;;;;6297710;28;20373;-72
2022/08/03 02:31:24;;;;;;;7.65;1.67;;;28.40;35.40;;;;;;6298092;28;20098;-72
2022/08/03 02:34:28;;;;;;;2.83;1.45;;;28.40;36.20;;;;;;6298671;28;20029;-72
2022/08/03 02:37:33;;;;;;;4.47;1.48;;;28.30;35.60;;;;;;6299034;28;20056;-72
2022/08/03 02:40:37;;;;;;;1.10;1.02;;;28.30;35.60;;;;;;6295248;28;20516;-71
2022/08/03 02:43:39;;;;;;;4.28;1.77;;;28.20;35.60;;;;;;6313659;28;20056;-71
2022/08/03 02:46:48;;;;;;;2.25;1.45;;;28.20;35.60;;;;;;6297515;28;20143;-71
2022/08/03 02:49:52;;;;;;;1.92;1.20;;;28.20;35.70;;;;;;6298107;28;20044;-72
2022/08/03 02:52:54;;;;;;;3.28;1.38;;;28.20;35.60;;;;;;6300923;28;20063;-72
2022/08/03 02:55:56;;;;;;;2.03;1.17;;;28.20;35.60;;;;;;6298512;28;20040;-72
2022/08/03 02:58:58;;;;;;;1.52;1.10;;;28.20;35.60;;;;;;6297088;28;20059;-72
2022/08/03 03:02:01;;;;;;;1.38;1.10;;;28.10;35.60;;;;;;6296993;28;20419;-71
2022/08/03 03:05:02;;;;;;;2.63;1.30;;;28.10;35.60;;;;;;6295156;28;20064;-72
2022/08/03 03:08:04;;;;;;;2.28;1.10;;;28.20;35.70;;;;;;6297462;28;20484;-73
2022/08/03 03:11:07;;;;;;;2.65;1.27;;;28.10;35.70;;;;;;6296846;28;20358;-72
2022/08/03 03:14:10;;;;;;;2.75;1.10;;;28.20;35.90;;;;;;6296768;28;20040;-72
2022/08/03 03:17:12;;;;;;;2.95;1.40;;;28.10;35.90;;;;;;6297857;28;20123;-72
2022/08/03 03:20:14;;;;;;;2.10;1.20;;;28.10;36.10;;;;;;6297920;28;20044;-71
2022/08/03 03:23:16;;;;;;;2.30;1.40;;;28.00;36.10;;;;;;6297754;28;20050;-71
2022/08/03 03:26:18;;;;;;;2.45;1.05;;;28.00;36.20;;;;;;6297640;28;20032;-71
2022/08/03 03:29:19;;;;;;;2.40;1.30;;;28.00;36.20;;;;;;6297205;28;20032;-71
2022/08/03 03:32:21;;;;;;;10.90;1.35;;;27.90;36.30;;;;;;6283802;28;20033;-71
2022/08/03 03:35:22;;;;;;;1.88;0.80;;;27.90;36.50;;;;;;6272252;28;20033;-71
2022/08/03 03:38:23;;;;;;;1.80;1.27;;;27.90;36.80;;;;;;6272773;28;20040;-72
2022/08/03 03:41:24;;;;;;;1.23;1.05;;;27.90;37.00;;;;;;6295253;28;20414;-71
2022/08/03 03:44:28;;;;;;;1.75;1.02;;;27.80;37.20;;;;;;6296009;28;20040;-71
2022/08/03 03:47:29;;;;;;;1.80;1.15;;;27.70;37.20;;;;;;6286715;28;20036;-71
2022/08/03 03:50:32;;;;;;;2.45;1.25;;;27.70;37.40;;;;;;6296263;28;20093;-72
2022/08/03 03:53:33;;;;;;;1.20;1.10;;;27.60;37.50;;;;;;6279839;28;20094;-72
2022/08/03 03:56:34;;;;;;;2.97;1.20;;;27.60;37.50;;;;;;6284876;28;20049;-71
2022/08/03 03:59:42;;;;;;;1.92;1.33;;;27.60;37.50;;;;;;6272172;28;20130;-72
2022/08/03 04:02:46;;;;;;;2.65;1.27;;;27.50;37.50;;;;;;6278987;28;20048;-72
2022/08/03 04:12:30;;;;;;;2.08;1.35;;;27.40;37.90;;;;;;6295049;28;20063;-72
2022/08/03 04:15:32;;;;;;;7.82;1.52;;;27.40;38.10;;;;;;6294854;28;20086;-73
2022/08/03 04:18:36;;;;;;;5.72;1.85;;;27.40;38.20;;;;;;6299901;28;20724;-72
2022/08/03 04:21:40;;;;;;;3.97;1.48;;;27.30;38.20;;;;;;6300782;28;20025;-73
2022/08/03 04:24:51;;;;;;;5.38;1.20;;;27.40;38.40;;;;;;6299417;28;20476;-73
2022/08/03 04:27:54;;;;;;;4.82;1.40;;;27.30;38.50;;;;;;6300830;28;20040;-72
2022/08/03 04:30:56;;;;;;;3.92;1.40;;;27.20;38.50;;;;;;6294667;28;20025;-72
2022/08/03 04:33:59;;;;;;;2.17;1.25;;;27.20;38.50;;;;;;6293933;28;20033;-71
2022/08/03 04:37:05;;;;;;;1.90;1.20;;;27.20;38.60;;;;;;6300138;28;20063;-72
2022/08/03 04:40:12;;;;;;;2.65;1.52;;;27.10;38.60;;;;;;6307292;28;20033;-72
2022/08/03 04:43:15;;;;;;;2.90;1.40;;;27.10;38.70;;;;;;6284801;28;20052;-71
2022/08/03 04:46:18;;;;;;;4.22;1.30;;;27.00;38.70;;;;;;6282393;28;20381;-72
2022/08/03 04:49:20;;;;;;;5.88;1.65;;;27.00;38.80;;;;;;6300353;28;20033;-73
2022/08/03 04:52:22;;;;;;;2.50;1.70;;;27.10;38.80;;;;;;6300292;28;20036;-72
2022/08/03 04:55:31;;;;;;;2.28;1.25;;;27.20;38.70;;;;;;6299688;28;20433;-72
2022/08/03 04:58:32;;;;;;;1.80;1.20;;;27.20;38.60;;;;;;6315241;28;20029;-72
2022/08/03 05:01:33;;;;;;;1.80;1.40;;;27.20;38.60;;;;;;6299598;28;20028;-73
2022/08/03 05:04:34;;;;;;;5.00;1.40;;;27.20;38.60;;;;;;6299362;28;20032;-72
2022/08/03 05:07:35;;;;;;;6.38;1.67;;;27.10;38.60;;;;;;6299973;28;20051;-71
2022/08/03 05:10:36;;;;;;;4.20;1.02;;;27.20;38.60;;;;;;6297983;28;20052;-73
2022/08/03 05:13:37;;;;;;;1.83;1.40;;;27.20;38.60;;;;;;6297224;28;20067;-73
2022/08/03 05:16:38;;;;;;;4.22;1.50;;;27.30;38.50;;;;;;6298256;28;20481;-73
2022/08/03 05:19:39;;;;;;;3.17;1.33;;;27.40;38.40;;;;;;6298466;28;20052;-73
2022/08/03 05:22:39;;;;;;;9.70;1.70;;;27.30;38.30;;;;;;6299439;28;20048;-74
2022/08/03 05:25:40;;;;;;;1.30;1.20;;;27.30;38.30;;;;;;6298926;28;20039;-74
2022/08/03 05:28:41;;;;;;;4.85;1.50;;;27.30;38.30;;;;;;6297134;28;20056;-72
2022/08/03 05:31:42;;;;;;;8.02;1.52;;;27.30;38.30;;;;;;6299000;28;20033;-72
2022/08/03 05:34:43;;;;;;;4.53;1.30;;;27.40;38.90;;;;;;6298259;28;20033;-71
2022/08/03 05:37:44;;;;;;;5.35;1.95;;;27.40;38.20;;;;;;6298939;28;20045;-71
2022/08/03 05:40:45;;;;;;;5.63;1.42;;;27.40;38.20;;;;;;6298192;28;20161;-74
2022/08/03 05:43:46;;;;;;;7.75;1.80;;;27.40;38.20;;;;;;6297804;28;20378;-71
2022/08/03 05:46:47;;;;;;;5.25;1.35;;;27.40;38.20;;;;;;6295785;28;20051;-71
2022/08/03 05:49:47;;;;;;;8.15;1.70;;;27.40;38.20;;;;;;6297782;28;20041;-72
2022/08/03 05:52:48;;;;;;;3.53;1.60;;;27.40;38.20;;;;;;6297634;28;20038;-71
2022/08/03 05:55:49;;;;;;;5.38;1.80;;;27.40;38.20;;;;;;6292968;28;20114;-72
2022/08/03 05:58:51;;;;;;;5.70;1.92;;;27.40;38.20;;;;;;6273358;28;20026;-72
2022/08/03 06:01:52;;;;;;;6.03;1.60;;;27.40;38.30;;;;;;6273415;28;20134;-72
2022/08/03 06:04:53;;;;;;;2.75;1.52;;;27.30;38.30;;;;;;6297000;28;20029;-71
2022/08/03 06:07:54;;;;;;;8.15;1.77;;;27.40;38.40;;;;;;6295341;28;20090;-71
2022/08/03 06:10:55;;;;;;;5.47;1.65;;;27.40;38.50;;;;;;6295501;28;20028;-72
2022/08/03 06:13:56;;;;;;;5.68;1.70;;;27.50;38.60;;;;;;6295210;28;20036;-71
2022/08/03 06:16:56;;;;;;;8.57;1.67;;;27.40;38.60;;;;;;6298303;28;20066;-70
2022/08/03 06:19:57;;;;;;;4.47;1.67;;;27.50;38.70;;;;;;6297112;28;20063;-73
2022/08/03 06:22:59;;;;;;;4.57;1.80;;;27.50;38.80;;;;;;6297694;28;20044;-73
2022/08/03 06:26:01;;;;;;;4.55;1.70;;;27.60;38.90;;;;;;6286405;28;20056;-71
2022/08/03 06:29:02;;;;;;;6.35;1.77;;;27.60;38.90;;;;;;6271546;28;20138;-73
2022/08/03 06:32:03;;;;;;;5.72;1.98;;;27.60;38.80;;;;;;6272595;28;20045;-72
2022/08/03 06:35:08;;;;;;;7.88;1.83;;;27.70;38.80;;;;;;6296479;28;20437;-73
2022/08/03 06:38:09;;;;;;;6.10;2.00;;;27.70;38.80;;;;;;6295976;28;20048;-72
2022/08/03 06:41:10;;;;;;;3.15;1.50;;;27.80;38.80;;;;;;6296952;28;20047;-72
2022/08/03 06:44:11;;;;;;;3.00;2.10;;;27.90;38.70;;;;;;6296328;28;20032;-72
2022/08/03 06:47:12;;;;;;;3.83;1.73;;;28.00;38.60;;;;;;6296981;28;20048;-71
2022/08/03 06:50:13;;;;;;;8.70;1.52;;;28.10;38.50;;;;;;6295581;28;20040;-74
2022/08/03 06:53:14;;;;;;;6.43;2.15;;;28.10;38.40;;;;;;6296697;28;20067;-73
2022/08/03 06:56:15;;;;;;;3.40;1.67;;;28.20;38.30;;;;;;6285080;28;20182;-72
2022/08/03 06:59:16;;;;;;;4.68;1.50;;;28.30;38.10;;;;;;6295868;28;20101;-72
2022/08/03 07:02:18;;;;;;;5.47;2.13;;;28.40;38.00;;;;;;6295176;28;20033;-73
2022/08/03 07:05:19;;;;;;;3.60;1.45;;;28.50;37.80;;;;;;6296002;28;20119;-72
2022/08/03 07:08:20;;;;;;;5.20;1.70;;;28.60;37.60;;;;;;6296169;28;20078;-71
2022/08/03 07:11:20;;;;;;;2.53;1.42;;;28.70;37.50;;;;;;6283764;28;20037;-72
2022/08/03 07:14:21;;;;;;;7.65;1.90;;;28.80;37.50;;;;;;6295555;28;20361;-72
2022/08/03 07:17:22;;;;;;;2.45;1.70;;;29.00;37.20;;;;;;6296119;28;20410;-73
2022/08/03 07:20:24;;;;;;;7.30;1.80;;;29.10;37.00;;;;;;6295406;28;20028;-71
2022/08/03 07:23:25;;;;;;;16.35;2.17;;;29.20;36.90;;;;;;6295255;28;20398;-72
2022/08/03 07:26:25;;;;;;;3.42;1.85;;;29.30;36.70;;;;;;6294884;28;20038;-72
2022/08/03 07:29:26;;;;;;;2.45;1.60;;;29.40;36.70;;;;;;6295354;28;20047;-72
2022/08/03 07:32:30;;;;;;;7.53;1.83;;;29.50;36.40;;;;;;6294255;28;20028;-71
2022/08/03 07:35:31;;;;;;;7.65;1.85;;;29.70;36.30;;;;;;6295056;28;20052;-71
2022/08/03 07:38:33;;;;;;;4.72;1.70;;;29.80;36.00;;;;;;6296168;28;20025;-71
2022/08/03 07:41:34;;;;;;;5.25;1.80;;;29.90;35.70;;;;;;6295416;28;20071;-72
2022/08/03 07:44:35;;;;;;;8.65;1.52;;;30.00;35.50;;;;;;6293527;28;20028;-72
2022/08/03 07:47:36;;;;;;;2.50;1.30;;;30.10;35.20;;;;;;6295454;28;20024;-73
2022/08/03 07:50:37;;;;;;;4.60;1.60;;;30.20;34.90;;;;;;6295842;28;20029;-72
2022/08/03 07:53:38;;;;;;;3.78;1.30;;;30.30;34.70;;;;;;6295275;28;23137;-73
2022/08/03 07:56:39;;;;;;;8.27;1.90;;;30.40;34.60;;;;;;6279041;28;20044;-73
2022/08/03 07:59:40;;;;;;;2.85;1.60;;;30.50;35.00;;;;;;6255026;28;20040;-72
2022/08/03 08:02:41;;;;;;;6.68;1.70;;;30.70;34.10;;;;;;6275722;28;20051;-72
2022/08/03 08:05:41;;;;;;;2.78;1.38;;;30.80;34.00;;;;;;6295878;28;20515;-73
2022/08/03 08:08:43;;;;;;;8.68;1.75;;;30.90;33.80;;;;;;6293531;28;20357;-72
2022/08/03 08:11:44;;;;;;;2.25;1.50;;;31.00;33.50;;;;;;6295468;28;20037;-72
2022/08/03 08:14:45;;;;;;;4.57;1.40;;;31.20;33.20;;;;;;6293576;28;20037;-75
2022/08/03 08:17:48;;;;;;;1.20;1.10;;;31.30;32.70;;;;;;6294153;28;20147;-72
2022/08/03 08:20:49;;;;;;;6.82;1.60;;;31.30;32.30;;;;;;6295755;28;20033;-73
2022/08/03 08:23:50;;;;;;;6.63;2.05;;;31.50;32.20;;;;;;6294148;28;20032;-73
2022/08/03 08:26:51;;;;;;;12.50;1.63;;;31.60;32.10;;;;;;6294954;28;20032;-73
2022/08/03 08:29:52;;;;;;;6.22;1.77;;;31.80;31.90;;;;;;6294165;28;20366;-72
2022/08/03 08:32:53;;;;;;;6.55;1.92;;;31.90;31.70;;;;;;6294697;28;20361;-72
2022/08/03 08:35:54;;;;;;;1.90;1.27;;;32.00;31.40;;;;;;6292117;28;20047;-73
2022/08/03 08:38:54;;;;;;;4.90;1.90;;;32.10;31.30;;;;;;6293660;28;20033;-73
2022/08/03 08:41:55;;;;;;;5.78;2.03;;;32.20;31.20;;;;;;6294427;28;20036;-73
2022/08/03 08:44:56;;;;;;;6.13;1.55;;;32.30;31.00;;;;;;6295090;28;20115;-73
2022/08/03 08:48:01;;;;;;;3.35;1.50;;;32.40;30.70;;;;;;6294757;28;20120;-74
2022/08/03 08:51:03;;;;;;;2.88;1.70;;;32.40;30.60;;;;;;6295038;28;20033;-73
2022/08/03 08:54:07;;;;;;;5.10;1.60;;;32.60;30.50;;;;;;6294638;28;20037;-73
2022/08/03 08:57:08;;;;;;;4.72;1.50;;;32.70;30.20;;;;;;6295030;28;20040;-72
2022/08/03 09:00:14;;;;;;;5.18;1.80;;;32.80;30.00;;;;;;6294392;28;20035;-72
2022/08/03 09:03:16;;;;;;;2.65;1.40;;;32.80;29.80;;;;;;6293434;28;20052;-72
2022/08/03 09:06:17;;;;;;;6.07;1.75;;;32.90;29.70;;;;;;6299309;28;20036;-71
2022/08/03 09:09:18;;;;;;;3.10;1.45;;;33.00;29.70;;;;;;6298118;28;20040;-73
2022/08/03 09:12:19;;;;;;;4.07;1.33;;;33.20;29.40;;;;;;6299361;28;20045;-73
2022/08/03 09:15:23;;;;;;;1.92;1.42;;;33.20;29.30;;;;;;6298823;28;20036;-72
2022/08/03 09:18:30;;;;;;;1.73;1.20;;;33.30;29.10;;;;;;6298807;28;20084;-72
2022/08/03 09:21:31;;;;;;;3.47;1.50;;;33.30;29.00;;;;;;6298389;28;20044;-72
2022/08/03 09:24:32;;;;;;;3.75;1.25;;;33.40;29.00;;;;;;6298100;28;20121;-72
2022/08/03 09:27:43;;;;;;;4.80;1.60;;;33.40;28.90;;;;;;6298975;28;20378;-72
2022/08/03 09:30:57;;;;;;;2.20;1.40;;;33.50;28.80;;;;;;6297186;28;20127;-72
2022/08/03 09:34:06;;;;;;;14.23;2.05;;;33.60;28.70;;;;;;6295943;28;20032;-73
2022/08/03 09:37:15;;;;;;;8.70;1.65;;;33.60;28.50;;;;;;6297378;28;20350;-72
2022/08/03 09:40:34;;;;;;;3.72;1.33;;;33.70;28.50;;;;;;6295390;28;20056;-73
2022/08/03 09:43:45;;;;;;;5.63;1.65;;;33.80;28.40;;;;;;6297119;28;20040;-72
2022/08/03 09:46:49;;;;;;;6.30;1.50;;;33.90;28.40;;;;;;6295396;28;20048;-71
2022/08/03 09:50:04;;;;;;;2.78;1.63;;;33.90;28.30;;;;;;6295530;28;20043;-72
2022/08/03 09:53:05;;;;;;;3.08;1.60;;;33.90;28.30;;;;;;6296761;28;20377;-73
2022/08/03 09:56:06;;;;;;;5.47;1.80;;;34.00;28.30;;;;;;6296034;28;20060;-72
2022/08/03 09:59:09;;;;;;;8.15;1.90;;;33.90;28.20;;;;;;6277503;28;20103;-73
2022/08/03 10:02:23;;;;;;;11.52;2.10;;;33.90;28.20;;;;;;6273995;28;20041;-72
2022/08/03 10:05:31;;;;;;;10.93;2.30;;;34.00;28.20;;;;;;6297874;28;20182;-72
2022/08/03 10:08:32;;;;;;;8.98;2.30;;;34.10;28.20;;;;;;6298272;28;20115;-72
2022/08/03 10:11:34;;;;;;;4.47;1.70;;;34.20;28.10;;;;;;6297450;28;20365;-72
2022/08/03 10:14:38;;;;;;;5.28;2.00;;;34.20;28.10;;;;;;6297188;28;20044;-73
2022/08/03 10:17:39;;;;;;;1.88;1.52;;;34.30;27.90;;;;;;6297206;28;20041;-73
2022/08/03 10:20:52;;;;;;;8.73;1.58;;;34.20;27.90;;;;;;6297930;28;20039;-72
2022/08/03 10:23:55;;;;;;;5.13;1.85;;;34.20;28.00;;;;;;6297367;28;20082;-72
2022/08/03 10:27:04;;;;;;;6.22;1.73;;;34.30;28.00;;;;;;6275729;28;20088;-73
2022/08/03 10:30:07;;;;;;;3.22;1.50;;;34.40;27.90;;;;;;6278771;28;20044;-71
2022/08/03 10:33:18;;;;;;;3.72;1.45;;;34.50;27.80;;;;;;6282253;28;20036;-73
2022/08/03 10:36:23;;;;;;;8.05;1.92;;;34.60;27.80;;;;;;6311601;28;20145;-73
2022/08/03 10:39:28;;;;;;;1.38;1.10;;;34.60;27.70;;;;;;6296596;28;20040;-72
2022/08/03 10:42:33;;;;;;;4.20;1.63;;;34.60;27.50;;;;;;6294720;28;20051;-72
2022/08/03 10:45:39;;;;;;;3.35;1.20;;;34.70;27.40;;;;;;6296384;28;20058;-74
2022/08/03 10:48:41;;;;;;;2.70;1.60;;;34.70;27.00;;;;;;6296658;28;20111;-73
2022/08/03 10:51:44;;;;;;;2.70;1.33;;;34.90;26.90;;;;;;6295965;28;20036;-73
2022/08/03 10:58:05;;;;;;;3.45;1.40;;;35.00;26.40;;;;;;6296381;28;20130;-73
2022/08/03 11:01:07;;;;;;;1.42;1.10;;;35.20;26.40;;;;;;6296347;28;20060;-73
2022/08/03 11:04:17;;;;;;;3.20;1.63;;;35.40;26.00;;;;;;6295709;28;20381;-72
2022/08/03 11:07:23;;;;;;;4.45;1.23;;;36.00;25.60;;;;;;6294451;28;20055;-72
2022/08/03 11:10:31;;;;;;;1.92;1.48;;;36.50;25.00;;;;;;6295285;28;20036;-74
2022/08/03 11:13:32;;;;;;;4.82;1.52;;;36.90;24.60;;;;;;6295685;28;20132;-72
2022/08/03 11:16:40;;;;;;;5.10;1.77;;;37.10;24.30;;;;;;6295191;28;20040;-72
2022/08/03 11:19:48;;;;;;;5.32;1.48;;;37.30;24.00;;;;;;6295217;28;20040;-72
2022/08/03 11:22:52;;;;;;;3.03;1.30;;;37.60;23.80;;;;;;6296176;28;20040;-72
2022/08/03 11:26:15;;;;;;;4.68;1.50;;;37.90;23.50;;;;;;6294422;28;20043;-73
2022/08/03 11:29:29;;;;;;;4.88;1.30;;;38.10;23.30;;;;;;6294735;28;20044;-72
2022/08/03 11:32:36;;;;;;;5.60;1.27;;;38.30;23.10;;;;;;6294058;28;20028;-72
2022/08/03 11:35:58;;;;;;;1.45;1.27;;;38.30;22.90;;;;;;6295608;28;20097;-72
2022/08/03 11:39:16;;;;;;;1.50;1.15;;;38.30;22.90;;;;;;6293910;28;20037;-72
2022/08/03 11:42:23;;;;;;;2.45;1.20;;;38.40;22.70;;;;;;6294571;28;20033;-73
2022/08/03 11:45:24;;;;;;;3.13;1.30;;;38.40;22.60;;;;;;6292476;28;20033;-73
2022/08/03 11:48:39;;;;;;;6.75;1.23;;;38.60;22.40;;;;;;6294408;28;20024;-73
2022/08/03 11:51:40;;;;;;;2.45;1.30;;;38.80;22.20;;;;;;6293823;28;20492;-73
2022/08/03 11:54:42;;;;;;;2.90;1.20;;;38.80;22.00;;;;;;6291901;28;20071;-73
2022/08/03 11:57:45;;;;;;;1.63;1.10;;;39.00;21.90;;;;;;6293195;28;20048;-73
2022/08/03 12:00:47;;;;;;;2.05;1.10;;;39.00;21.80;;;;;;6263807;28;20060;-73
2022/08/03 12:03:48;;;;;;;3.22;1.60;;;39.20;21.70;;;;;;6284239;28;20040;-73
2022/08/03 12:06:59;;;;;;;1.40;0.98;;;39.40;21.50;;;;;;6293511;28;20049;-73
2022/08/03 12:10:14;;;;;;;2.30;1.40;;;39.40;21.50;;;;;;6292936;28;20542;-73
2022/08/03 12:13:16;;;;;;;3.38;1.70;;;39.60;21.40;;;;;;6292650;28;20111;-74
2022/08/03 12:16:18;;;;;;;3.80;1.30;;;39.90;21.30;;;;;;6293904;28;20385;-72
2022/08/03 12:19:19;;;;;;;2.90;1.00;;;40.20;21.00;;;;;;6285139;28;20061;-72
2022/08/03 12:22:33;;;;;;;1.70;1.13;;;40.70;20.70;;;;;;6268155;28;20029;-72
2022/08/03 12:25:35;;;;;;;3.50;1.10;;;40.90;20.50;;;;;;6285405;28;20120;-72
2022/08/03 12:28:36;;;;;;;1.10;1.00;;;41.00;20.10;;;;;;6293808;28;20056;-72
2022/08/03 12:31:37;;;;;;;2.10;1.20;;;41.50;20.00;;;;;;6294125;28;20033;-72
2022/08/03 12:34:45;;;;;;;2.72;1.30;;;41.70;19.70;;;;;;6292171;28;20059;-72
2022/08/03 12:37:47;;;;;;;6.63;1.15;;;41.80;19.90;;;;;;6294809;28;20082;-72
2022/08/03 12:40:56;;;;;;;2.83;1.20;;;41.70;19.40;;;;;;6298556;28;20046;-72
2022/08/03 12:43:58;;;;;;;3.03;0.93;;;41.70;19.40;;;;;;6295933;28;20480;-72
2022/08/03 12:46:59;;;;;;;2.47;1.10;;;41.80;19.10;;;;;;6289311;28;20044;-72
2022/08/03 12:50:00;;;;;;;1.10;0.90;;;41.70;19.30;;;;;;6298554;28;20062;-72
2022/08/03 12:53:04;;;;;;;3.10;1.23;;;41.70;19.10;;;;;;6297225;28;20040;-72
2022/08/03 12:56:05;;;;;;;3.42;1.30;;;41.70;19.50;;;;;;6276492;28;20033;-72
2022/08/03 12:59:27;;;;;;;2.40;1.00;;;41.80;18.90;;;;;;6290748;28;20033;-73
2022/08/03 13:02:28;;;;;;;1.73;1.33;;;42.00;18.70;;;;;;6294386;28;20107;-71
2022/08/03 13:05:29;;;;;;;3.15;1.33;;;42.10;18.70;;;;;;6297340;28;20058;-71
2022/08/03 13:08:30;;;;;;;1.50;1.10;;;42.40;18.20;;;;;;6294255;28;20361;-72
2022/08/03 13:11:32;;;;;;;3.65;1.35;;;42.80;18.10;;;;;;6295692;28;20033;-73
2022/08/03 13:14:33;;;;;;;2.38;1.27;;;43.20;17.70;;;;;;6295151;28;20032;-73
2022/08/03 13:17:34;;;;;;;4.30;1.00;;;43.10;17.70;;;;;;6294232;28;20126;-73
2022/08/03 13:20:35;;;;;;;2.45;1.02;;;43.10;17.70;;;;;;6296341;28;20032;-73
2022/08/03 13:23:36;;;;;;;3.90;1.35;;;43.30;17.90;;;;;;6296607;28;20142;-73
2022/08/03 13:26:37;;;;;;;2.80;1.10;;;43.50;17.40;;;;;;6295053;28;20028;-73
2022/08/03 13:29:38;;;;;;;2.80;1.33;;;43.50;17.40;;;;;;6296211;28;20032;-73
2022/08/03 13:32:40;;;;;;;2.03;1.17;;;44.00;17.30;;;;;;6294783;28;20029;-73
2022/08/03 13:35:40;;;;;;;4.10;1.48;;;44.50;17.10;;;;;;6296053;28;20056;-72
2022/08/03 13:38:41;;;;;;;5.78;1.50;;;45.00;16.70;;;;;;6294769;28;20039;-73
2022/08/03 13:41:42;;;;;;;3.00;1.20;;;45.40;16.60;;;;;;6294939;28;20373;-73
2022/08/03 13:44:43;;;;;;;4.30;1.15;;;45.50;16.50;;;;;;6294235;28;20035;-73
2022/08/03 13:47:44;;;;;;;1.27;1.05;;;45.90;16.40;;;;;;6294922;28;20032;-73
2022/08/03 13:50:45;;;;;;;4.97;1.20;;;46.20;16.00;;;;;;6294734;28;20036;-73
2022/08/03 13:53:46;;;;;;;3.80;1.13;;;46.50;15.90;;;;;;6294697;28;20102;-73
2022/08/03 13:56:51;;;;;;;5.05;1.42;;;47.00;15.90;;;;;;6291773;28;20052;-73
2022/08/03 13:59:52;;;;;;;2.08;1.17;;;47.20;15.60;;;;;;6288344;28;20044;-72
2022/08/03 14:02:53;;;;;;;3.10;1.00;;;47.30;15.50;;;;;;6278845;28;20033;-73
2022/08/03 14:05:54;;;;;;;1.67;1.40;;;47.70;15.30;;;;;;6297126;28;20326;-73
2022/08/03 14:08:55;;;;;;;5.15;1.58;;;47.90;15.10;;;;;;6295430;28;20029;-73
2022/08/03 14:11:56;;;;;;;3.55;1.20;;;48.20;14.90;;;;;;6274320;28;20032;-73
2022/08/03 14:14:57;;;;;;;2.08;1.20;;;48.20;14.80;;;;;;6289618;28;20115;-73
2022/08/03 14:17:57;;;;;;;2.20;1.00;;;48.30;14.70;;;;;;6279053;28;20055;-72
2022/08/03 14:20:59;;;;;;;4.43;1.13;;;48.50;14.60;;;;;;6296290;28;20028;-73
2022/08/03 14:24:01;;;;;;;2.65;1.40;;;48.90;14.40;;;;;;6293853;28;20037;-73
2022/08/03 14:27:02;;;;;;;2.38;1.88;;;49.30;14.20;;;;;;6295367;28;20461;-72
2022/08/03 14:30:03;;;;;;;9.05;1.48;;;49.60;14.00;;;;;;6278787;28;20036;-73
2022/08/03 14:33:04;;;;;;;3.92;1.90;;;49.80;14.00;;;;;;6295152;28;20033;-72
2022/08/03 14:36:05;;;;;;;3.33;1.30;;;49.80;13.90;;;;;;6295960;28;20512;-73
2022/08/03 14:39:06;;;;;;;1.20;1.10;;;49.50;14.10;;;;;;6294463;28;20033;-74
2022/08/03 14:42:07;;;;;;;1.45;1.10;;;49.60;13.90;;;;;;6296378;28;20037;-74
2022/08/03 14:45:08;;;;;;;1.38;1.05;;;49.60;13.80;;;;;;6310824;28;20032;-74
2022/08/03 14:48:11;;;;;;;2.47;1.70;;;49.60;13.70;;;;;;6295717;28;20071;-74
2022/08/03 14:51:12;;;;;;;1.52;1.40;;;49.60;13.70;;;;;;6294410;28;20028;-73
2022/08/03 14:54:13;;;;;;;3.30;1.70;;;49.00;14.00;;;;;;6295771;28;20044;-74
2022/08/03 14:57:13;;;;;;;7.03;1.52;;;47.50;14.80;;;;;;6295714;28;20051;-72
2022/08/03 15:00:15;;;;;;;2.97;1.80;;;45.70;15.90;;;;;;6295153;28;20032;-72
2022/08/03 15:03:19;;;;;;;6.15;1.40;;;44.20;16.90;;;;;;6295384;28;20037;-72
2022/08/03 15:06:20;;;;;;;3.70;1.55;;;43.10;17.60;;;;;;6292439;28;20036;-73
2022/08/03 15:09:21;;;;;;;1.73;1.38;;;42.30;18.10;;;;;;6293536;28;20094;-74
2022/08/03 15:12:22;;;;;;;1.15;1.05;;;41.70;18.50;;;;;;6294169;28;20074;-72
2022/08/03 15:15:23;;;;;;;3.67;1.70;;;41.30;18.90;;;;;;6294735;28;20040;-73
2022/08/03 15:18:24;;;;;;;7.10;2.08;;;40.90;19.20;;;;;;6295035;28;20048;-73
2022/08/03 15:21:25;;;;;;;2.65;1.48;;;40.40;19.70;;;;;;6293291;28;20048;-72
2022/08/03 15:24:26;;;;;;;6.53;1.52;;;39.80;20.10;;;;;;6295228;28;20477;-73
2022/08/03 15:27:26;;;;;;;2.42;1.80;;;39.70;20.30;;;;;;6277063;28;20041;-73
2022/08/03 15:30:27;;;;;;;8.38;1.95;;;39.70;20.40;;;;;;6294949;28;20032;-72
2022/08/03 15:33:29;;;;;;;2.90;1.60;;;40.30;20.20;;;;;;6276314;28;20036;-72
2022/08/03 15:36:31;;;;;;;3.70;1.30;;;41.60;19.30;;;;;;6295026;28;20418;-74
2022/08/03 15:39:32;;;;;;;6.70;1.70;;;42.80;18.60;;;;;;6294134;28;20106;-73
2022/08/03 15:42:33;;;;;;;5.93;1.92;;;43.80;17.90;;;;;;6310561;28;20446;-72
2022/08/03 15:45:34;;;;;;;2.58;1.98;;;44.50;17.30;;;;;;6292266;28;20055;-73
2022/08/03 15:48:35;;;;;;;1.67;1.38;;;45.10;17.00;;;;;;6294877;28;20499;-73
2022/08/03 15:51:37;;;;;;;4.97;2.30;;;45.60;16.50;;;;;;6293097;28;20040;-73
2022/08/03 15:54:38;;;;;;;2.90;1.20;;;45.90;16.40;;;;;;6294993;28;20304;-73
2022/08/03 15:57:38;;;;;;;2.78;1.80;;;46.20;16.20;;;;;;6292725;28;20067;-73
2022/08/03 16:00:41;;;;;;;4.63;2.00;;;46.60;16.00;;;;;;6272376;28;20465;-73
2022/08/03 16:03:41;;;;;;;4.68;1.88;;;46.80;15.80;;;;;;6300270;28;20032;-72